Time;durP1;ratioP1;P1;durP2;ratioP2;P2;SDS_P1;SDS_P2;PMS_P1;PMS_P2;Temp;Humidity;BMP_temperature;BMP_pressure;BME280_temperature;BME280_humidity;BME280_pressure;Samples;Min_cycle;Max_cycle;Signal;HPM_P1;HPM_P2
2022/03/10 00:00:27;;;;;;;;;;;0.90;81.40;;;-0.48;76.90;96618.88;4142805;33;19918;-82
2022/03/10 00:02:57;;;;;;;;;;;0.90;81.30;;;-0.49;77.00;96614.50;4118959;33;20227;-82
2022/03/10 00:05:26;;;;;;;;;;;0.90;81.40;;;-0.49;76.93;96609.13;4119522;33;20249;-83
2022/03/10 00:07:56;;;;;;;;;;;0.90;81.40;;;-0.50;77.12;96613.66;4143489;33;23847;-82
2022/03/10 00:10:25;;;;;;;;;;;0.90;81.50;;;-0.49;76.95;96611.81;4144915;33;19903;-82
2022/03/10 00:12:54;;;;;;;;;;;0.90;81.50;;;-0.50;76.97;96604.78;4121996;33;19909;-82
2022/03/10 00:15:23;;;;;;;;;;;0.90;81.50;;;-0.50;76.96;96610.16;4144196;33;19926;-82
2022/03/10 00:17:52;;;;;;;;;;;0.90;81.60;;;-0.51;77.49;96609.31;4143788;33;20184;-82
2022/03/10 00:20:22;;;;;;;;;;;0.90;81.70;;;-0.51;77.20;96606.63;4140943;33;19902;-82
2022/03/10 00:22:52;;;;;;;;;;;0.90;81.70;;;-0.50;77.40;96615.53;4142183;33;20602;-82
2022/03/10 00:25:21;;;;;;;;;;;0.90;81.70;;;-0.50;77.49;96605.59;4140923;33;19904;-82
2022/03/10 00:27:50;;;;;;;;;;;0.90;81.70;;;-0.50;77.22;96612.84;4117966;33;19902;-81
2022/03/10 00:30:20;;;;;;;;;;;0.90;81.70;;;-0.50;77.16;96607.47;4116773;33;20138;-82
2022/03/10 00:32:51;;;;;;;;;;;0.90;81.70;;;-0.50;77.41;96621.72;4118562;33;20216;-81
2022/03/10 00:35:22;;;;;;;;;;;0.90;81.90;;;-0.50;77.57;96616.34;4140550;33;19909;-81
2022/03/10 00:37:51;;;;;;;;;;;0.90;81.90;;;-0.50;77.21;96604.78;4117238;33;20198;-82
2022/03/10 00:40:20;;;;;;;;;;;0.90;81.90;;;-0.51;76.99;96612.00;4139441;33;19903;-81
2022/03/10 00:42:48;;;;;;;;;;;0.90;81.60;;;-0.52;77.21;96606.81;4116637;33;19903;-82
2022/03/10 00:45:17;;;;;;;;;;;0.90;81.80;;;-0.53;77.08;96602.47;4116753;33;20335;-82
2022/03/10 00:47:46;;;;;;;;;;;0.90;81.70;;;-0.51;77.26;96611.19;4140088;33;20233;-82
2022/03/10 00:50:15;;;;;;;;;;;0.90;81.80;;;-0.52;76.95;96613.03;4116817;33;19903;-82
2022/03/10 00:52:46;;;;;;;;;;;0.80;81.60;;;-0.52;77.28;96614.88;4117554;33;20222;-82
2022/03/10 00:55:17;;;;;;;;;;;0.90;81.90;;;-0.53;77.21;96615.91;4141601;33;20188;-82
2022/03/10 00:57:46;;;;;;;;;;;0.80;81.70;;;-0.54;77.28;96614.25;4117786;33;20198;-82
2022/03/10 01:00:15;;;;;;;;;;;0.80;81.60;;;-0.53;76.73;96611.38;4117032;33;20234;-82
2022/03/10 01:02:44;;;;;;;;;;;0.80;81.40;;;-0.54;77.33;96614.25;4118014;33;20541;-82
2022/03/10 01:05:13;;;;;;;;;;;0.80;81.60;;;-0.53;77.42;96610.53;4140670;33;19907;-82
2022/03/10 01:07:41;;;;;;;;;;;0.80;81.70;;;-0.53;77.20;96618.59;4114388;33;20205;-82
2022/03/10 01:10:11;;;;;;;;;;;0.80;81.70;;;-0.55;77.02;96617.94;4131162;33;20220;-82
2022/03/10 01:12:42;;;;;;;;;;;0.80;81.70;;;-0.54;77.48;96616.94;4106495;33;20212;-82
2022/03/10 01:15:11;;;;;;;;;;;0.90;81.80;;;-0.55;77.51;96609.88;4108489;33;19903;-82
2022/03/10 01:17:39;;;;;;;;;;;0.90;82.00;;;-0.55;77.40;96612.56;4132047;33;20234;-83
2022/03/10 01:20:09;;;;;;;;;;;0.80;81.80;;;-0.56;77.40;96609.06;4131023;33;20223;-82
2022/03/10 01:22:37;;;;;;;;;;;0.90;81.90;;;-0.56;77.24;96611.75;4132573;33;19903;-82
2022/03/10 01:25:08;;;;;;;;;;;0.80;81.90;;;-0.56;77.26;96613.59;4131589;33;20325;-82
2022/03/10 01:27:39;;;;;;;;;;;0.80;81.80;;;-0.56;77.13;96616.28;4108051;33;20208;-81
2022/03/10 01:30:09;;;;;;;;;;;0.80;81.60;;;-0.57;77.74;96615.47;4131261;33;20185;-81
2022/03/10 01:32:38;;;;;;;;;;;0.80;81.90;;;-0.58;77.31;96615.66;4132513;33;20211;-82
2022/03/10 01:35:08;;;;;;;;;;;0.80;81.90;;;-0.58;77.61;96619.16;4134158;33;19902;-83
2022/03/10 01:37:37;;;;;;;;;;;0.80;82.00;;;-0.59;77.44;96622.88;4111370;33;20195;-83
2022/03/10 01:40:07;;;;;;;;;;;0.80;81.90;;;-0.58;77.54;96618.34;4135312;33;20215;-83
2022/03/10 01:42:36;;;;;;;;;;;0.80;81.90;;;-0.59;77.93;96617.50;4112021;33;19909;-82
2022/03/10 01:45:07;;;;;;;;;;;0.80;81.90;;;-0.59;77.61;96614.00;4110981;33;20187;-83
2022/03/10 01:47:36;;;;;;;;;;;0.80;82.00;;;-0.60;77.71;96613.16;4110724;33;19903;-82
2022/03/10 01:50:05;;;;;;;;;;;0.80;81.90;;;-0.60;77.47;96615.00;4135451;33;20190;-83
2022/03/10 01:52:34;;;;;;;;;;;0.80;82.00;;;-0.62;77.80;96620.56;4135681;33;19907;-83
2022/03/10 01:55:02;;;;;;;;;;;0.80;82.00;;;-0.60;77.45;96623.09;4116869;33;20508;-83
2022/03/10 01:57:32;;;;;;;;;;;0.80;81.90;;;-0.61;77.68;96624.91;4117440;33;19909;-83
2022/03/10 02:00:00;;;;;;;;;;;0.80;81.90;;;-0.62;77.21;96626.78;4118144;33;20185;-82
2022/03/10 02:02:30;;;;;;;;;;;0.80;81.90;;;-0.63;77.09;96627.81;4118795;33;19903;-83
2022/03/10 02:04:58;;;;;;;;;;;0.80;81.70;;;-0.63;77.31;96627.81;4141116;33;19903;-83
2022/03/10 02:10:19;;;;;;;;;;;0.80;81.80;;;-0.63;77.63;96616.19;4116019;34;20219;-82
2022/03/10 02:12:48;;;;;;;;;;;0.80;82.10;;;-0.64;77.29;96623.44;4117536;34;19910;-83
2022/03/10 02:18:05;;;;;;;;;;;0.80;82.10;;;-0.64;77.73;96626.13;4092608;34;19907;-83
2022/03/10 02:20:34;;;;;;;;;;;0.80;82.10;;;-0.65;77.46;96629.84;4114764;34;20214;-83
2022/03/10 02:23:04;;;;;;;;;;;0.80;82.00;;;-0.65;77.43;96629.84;4092354;34;19903;-83
2022/03/10 02:25:33;;;;;;;;;;;0.80;82.10;;;-0.64;77.77;96636.03;4116076;34;20229;-83
2022/03/10 02:28:02;;;;;;;;;;;0.70;82.00;;;-0.65;77.70;96640.59;4092758;34;19910;-82
2022/03/10 02:30:30;;;;;;;;;;;0.70;82.00;;;-0.65;77.48;96640.59;4114405;34;20221;-83
2022/03/10 02:32:59;;;;;;;;;;;0.70;82.00;;;-0.66;77.68;96643.50;4116385;34;20197;-82
2022/03/10 02:35:28;;;;;;;;;;;0.70;82.10;;;-0.66;77.27;96636.25;4092705;34;19903;-83
2022/03/10 02:37:57;;;;;;;;;;;0.70;81.90;;;-0.65;77.60;96640.59;4115038;34;20111;-83
2022/03/10 02:40:27;;;;;;;;;;;0.70;81.90;;;-0.66;77.64;96638.13;4114506;34;19903;-83
2022/03/10 02:42:55;;;;;;;;;;;0.70;82.00;;;-0.66;77.65;96641.63;4114427;34;19903;-83
2022/03/10 02:45:24;;;;;;;;;;;0.70;81.90;;;-0.66;77.47;96638.94;4091823;34;20222;-83
2022/03/10 02:47:53;;;;;;;;;;;0.70;81.80;;;-0.65;77.16;96639.78;4114809;34;20234;-83
2022/03/10 02:50:21;;;;;;;;;;;0.70;81.90;;;-0.67;77.61;96631.06;4114454;34;20221;-83
2022/03/10 02:52:50;;;;;;;;;;;0.70;81.80;;;-0.68;77.39;96632.91;4114859;34;20207;-83
2022/03/10 02:55:19;;;;;;;;;;;0.70;81.90;;;-0.68;77.51;96646.34;4092138;34;20261;-82
2022/03/10 02:57:49;;;;;;;;;;;0.70;81.90;;;-0.69;77.42;96647.38;4114909;34;19903;-82
2022/03/10 03:00:18;;;;;;;;;;;0.70;81.90;;;-0.68;77.33;96643.66;4091644;34;19957;-82
2022/03/10 03:02:47;;;;;;;;;;;0.70;81.80;;;-0.69;77.55;96644.69;4091503;34;20209;-82
2022/03/10 03:05:16;;;;;;;;;;;0.70;81.90;;;-0.70;77.37;96648.38;4116383;34;20102;-82
2022/03/10 03:07:45;;;;;;;;;;;0.70;81.90;;;-0.70;77.49;96648.38;4091531;34;20207;-82
2022/03/10 03:10:13;;;;;;;;;;;0.70;81.90;;;-0.70;77.16;96648.38;4114193;34;20197;-82
2022/03/10 03:12:48;;;;;;;;;;;0.70;81.90;;;-0.70;77.48;96648.38;4091774;34;20184;-82
2022/03/10 03:15:17;;;;;;;;;;;0.70;81.90;;;-0.70;77.32;96655.63;4114184;34;20119;-82
2022/03/10 03:17:45;;;;;;;;;;;0.70;81.70;;;-0.70;77.72;96655.63;4090433;34;19903;-82
2022/03/10 03:20:15;;;;;;;;;;;0.70;81.90;;;-0.72;77.59;96654.97;4089135;34;20263;-82
2022/03/10 03:22:44;;;;;;;;;;;0.70;81.90;;;-0.72;77.46;96655.84;4089384;34;19910;-82
2022/03/10 03:25:14;;;;;;;;;;;0.70;81.70;;;-0.72;77.43;96661.22;4112510;34;20201;-82
2022/03/10 03:27:43;;;;;;;;;;;0.70;81.70;;;-0.71;77.69;96665.53;4089305;34;20234;-82
2022/03/10 03:30:13;;;;;;;;;;;0.70;81.80;;;-0.73;77.21;96661.38;4111606;34;20217;-83
2022/03/10 03:32:42;;;;;;;;;;;0.70;81.80;;;-0.72;77.03;96665.72;4088853;34;19975;-82
2022/03/10 03:35:10;;;;;;;;;;;0.70;81.80;;;-0.73;77.30;96664.06;4111799;34;20197;-82
2022/03/10 03:37:39;;;;;;;;;;;0.70;81.80;;;-0.74;77.71;96663.25;4090099;34;20202;-82
2022/03/10 03:40:09;;;;;;;;;;;0.60;81.70;;;-0.73;76.97;96670.28;4114278;34;20188;-82
2022/03/10 03:42:38;;;;;;;;;;;0.70;81.90;;;-0.73;77.13;96674.81;4114384;34;20157;-82
2022/03/10 03:45:08;;;;;;;;;;;0.60;81.70;;;-0.74;77.17;96679.38;4091618;34;19907;-82
2022/03/10 03:47:38;;;;;;;;;;;0.60;81.60;;;-0.74;77.07;96683.91;4114906;34;19914;-82
2022/03/10 03:50:08;;;;;;;;;;;0.60;81.70;;;-0.76;77.20;96676.03;4114725;34;19907;-82
2022/03/10 03:52:36;;;;;;;;;;;0.60;81.70;;;-0.75;77.57;96677.72;4115590;34;20204;-82
2022/03/10 03:55:06;;;;;;;;;;;0.60;81.80;;;-0.74;77.47;96678.53;4091496;34;20566;-82
2022/03/10 03:57:35;;;;;;;;;;;0.60;81.90;;;-0.76;77.21;96686.78;4114369;34;20202;-83
2022/03/10 04:00:04;;;;;;;;;;;0.60;81.70;;;-0.75;77.07;96693.00;4113142;34;19903;-82
2022/03/10 04:02:41;;;;;;;;;;;0.60;81.70;;;-0.75;77.06;96693.84;4112557;34;20202;-83
2022/03/10 04:05:10;;;;;;;;;;;0.60;81.70;;;-0.77;77.68;96695.88;4112255;34;19903;-83
2022/03/10 04:07:39;;;;;;;;;;;0.60;81.80;;;-0.77;77.61;96703.94;4107148;34;20224;-83
2022/03/10 04:10:09;;;;;;;;;;;0.60;81.60;;;-0.78;77.38;96704.97;4104763;34;19903;-83
2022/03/10 04:12:37;;;;;;;;;;;0.60;81.60;;;-0.78;77.47;96705.81;4106546;34;20493;-81
2022/03/10 04:15:07;;;;;;;;;;;0.60;81.70;;;-0.78;77.42;96699.59;4083187;34;20559;-82
2022/03/10 04:17:36;;;;;;;;;;;0.60;81.70;;;-0.78;77.34;96699.59;4105505;34;19903;-82
2022/03/10 04:20:11;;;;;;;;;;;0.60;81.60;;;-0.79;77.60;96700.59;4105117;34;20209;-82
2022/03/10 04:22:39;;;;;;;;;;;0.60;81.70;;;-0.80;77.52;96707.84;4080252;34;20222;-82
2022/03/10 04:25:09;;;;;;;;;;;0.60;81.70;;;-0.79;77.08;96711.34;4080234;34;19910;-82
2022/03/10 04:27:38;;;;;;;;;;;0.60;81.70;;;-0.79;77.50;96709.50;4079449;34;20103;-82
2022/03/10 04:30:07;;;;;;;;;;;0.60;81.70;;;-0.80;77.31;96707.00;4078711;34;20221;-82
2022/03/10 04:32:43;;;;;;;;;;;0.60;81.70;;;-0.80;77.48;96713.22;4078934;34;20236;-82
2022/03/10 04:35:14;;;;;;;;;;;0.60;81.80;;;-0.80;77.26;96712.38;4102300;34;19903;-82
2022/03/10 04:37:43;;;;;;;;;;;0.60;81.90;;;-0.79;77.63;96722.09;4078405;34;19903;-82
2022/03/10 04:40:12;;;;;;;;;;;0.60;81.80;;;-0.80;77.35;96726.66;4101217;34;20102;-82
2022/03/10 04:42:41;;;;;;;;;;;0.60;81.80;;;-0.81;77.64;96722.31;4079638;34;19903;-82
2022/03/10 04:45:10;;;;;;;;;;;0.60;81.70;;;-0.80;77.27;96723.13;4080644;34;20214;-82
2022/03/10 04:47:40;;;;;;;;;;;0.60;81.60;;;-0.81;77.42;96721.44;4081268;34;19911;-82
2022/03/10 04:50:11;;;;;;;;;;;0.60;81.80;;;-0.80;77.24;96733.88;4081340;34;20238;-82
2022/03/10 04:52:41;;;;;;;;;;;0.60;81.80;;;-0.80;77.49;96733.88;4081178;34;20213;-82
2022/03/10 04:55:11;;;;;;;;;;;0.60;81.90;;;-0.79;77.17;96730.16;4110327;34;19904;-83
2022/03/10 04:57:40;;;;;;;;;;;0.60;81.90;;;-0.75;77.42;96742.22;4087513;34;19911;-82
2022/03/10 05:00:11;;;;;;;;;;;0.60;81.70;;;-0.73;77.18;96733.97;4110615;34;20184;-82
2022/03/10 05:02:40;;;;;;;;;;;0.70;81.60;;;-0.74;77.10;96738.53;4108043;34;20193;-82
2022/03/10 05:05:11;;;;;;;;;;;0.70;81.40;;;-0.73;76.87;96750.09;4107112;34;19904;-82
2022/03/10 05:07:41;;;;;;;;;;;0.70;81.30;;;-0.74;76.90;96749.28;4112157;34;20202;-82
2022/03/10 05:10:12;;;;;;;;;;;0.70;81.40;;;-0.74;77.33;96754.66;4113115;34;20210;-83
2022/03/10 05:12:48;;;;;;;;;;;0.60;81.40;;;-0.75;77.23;96752.13;4113448;34;20204;-82
2022/03/10 05:15:20;;;;;;;;;;;0.60;81.40;;;-0.79;77.11;96752.53;4113495;34;19974;-82
2022/03/10 05:17:48;;;;;;;;;;;0.60;81.40;;;-0.78;77.26;96756.03;4090711;34;19910;-82
2022/03/10 05:20:17;;;;;;;;;;;0.60;81.60;;;-0.77;77.04;96755.00;4160126;33;20545;-82
2022/03/10 05:22:48;;;;;;;;;;;0.60;81.60;;;-0.80;77.42;96758.06;4145560;33;19985;-82
2022/03/10 05:25:17;;;;;;;;;;;0.60;81.60;;;-0.80;77.38;96750.84;4145427;33;20533;-83
2022/03/10 05:27:46;;;;;;;;;;;0.60;81.60;;;-0.81;77.32;96754.56;4144210;33;20260;-82
2022/03/10 05:30:15;;;;;;;;;;;0.60;81.70;;;-0.80;77.29;96760.75;4168277;33;20204;-82
2022/03/10 05:32:43;;;;;;;;;;;0.60;81.60;;;-0.81;77.27;96759.09;4145319;33;20190;-82
2022/03/10 05:35:14;;;;;;;;;;;0.60;81.60;;;-0.80;77.22;96766.97;4169507;33;19902;-82
2022/03/10 05:37:43;;;;;;;;;;;0.60;81.60;;;-0.79;77.42;96767.81;4168910;33;20496;-82
2022/03/10 05:40:15;;;;;;;;;;;0.60;81.60;;;-0.80;77.21;96771.50;4168988;33;20187;-83
2022/03/10 05:42:44;;;;;;;;;;;0.60;81.60;;;-0.80;77.42;96776.88;4170850;33;19902;-82
2022/03/10 05:45:13;;;;;;;;;;;0.60;81.70;;;-0.81;76.91;96773.38;4171168;33;19906;-82
2022/03/10 05:47:41;;;;;;;;;;;0.60;81.50;;;-0.81;77.46;96781.44;4171119;33;20198;-82
2022/03/10 05:50:11;;;;;;;;;;;0.60;81.50;;;-0.80;77.37;96776.88;4147480;33;20209;-82
2022/03/10 05:52:40;;;;;;;;;;;0.60;81.60;;;-0.81;76.79;96777.91;4147617;33;19909;-82
2022/03/10 05:55:08;;;;;;;;;;;0.60;81.60;;;-0.80;77.28;96776.88;4170491;33;20526;-83
2022/03/10 05:57:39;;;;;;;;;;;0.60;81.60;;;-0.81;77.56;96783.28;4170293;33;20198;-83
2022/03/10 06:00:09;;;;;;;;;;;0.60;81.70;;;-0.81;77.12;96772.53;4146697;33;20803;-82
2022/03/10 06:02:43;;;;;;;;;;;0.60;81.60;;;-0.81;77.22;96789.50;4171931;33;20198;-82
2022/03/10 06:05:12;;;;;;;;;;;0.60;81.60;;;-0.79;77.31;96789.31;4170830;33;20083;-82
2022/03/10 06:07:40;;;;;;;;;;;0.60;81.60;;;-0.80;77.18;96793.88;4147939;33;20461;-82
2022/03/10 06:10:10;;;;;;;;;;;0.60;81.60;;;-0.79;77.10;96797.38;4147707;33;19915;-82
2022/03/10 06:12:40;;;;;;;;;;;0.60;81.60;;;-0.79;77.27;96794.69;4147761;33;20222;-83
2022/03/10 06:15:10;;;;;;;;;;;0.60;81.60;;;-0.79;76.92;96797.38;4145721;33;20240;-83
2022/03/10 06:17:38;;;;;;;;;;;0.60;81.60;;;-0.79;77.59;96800.91;4145267;33;19910;-83
2022/03/10 06:20:09;;;;;;;;;;;0.60;81.70;;;-0.77;77.52;96806.09;4146000;33;20220;-83
2022/03/10 06:22:37;;;;;;;;;;;0.60;81.70;;;-0.76;77.42;96815.84;4146876;33;20189;-84
2022/03/10 06:25:07;;;;;;;;;;;0.60;81.60;;;-0.74;77.29;96818.31;4170824;33;20194;-83
2022/03/10 06:27:36;;;;;;;;;;;0.70;81.60;;;-0.73;77.25;96809.25;4146438;33;19909;-83
2022/03/10 06:30:08;;;;;;;;;;;0.60;81.40;;;-0.73;77.14;96812.78;4144223;33;20241;-83
2022/03/10 06:32:37;;;;;;;;;;;0.70;81.40;;;-0.72;76.78;96819.84;4145179;33;20228;-84
2022/03/10 06:35:07;;;;;;;;;;;0.70;81.40;;;-0.70;76.83;96819.63;4170120;33;19902;-83
2022/03/10 06:37:36;;;;;;;;;;;0.70;81.40;;;-0.67;77.50;96820.09;4146304;33;20125;-83
2022/03/10 06:40:08;;;;;;;;;;;0.70;81.20;;;-0.65;77.17;96828.81;4168976;33;19909;-84
2022/03/10 06:42:37;;;;;;;;;;;0.80;81.20;;;-0.60;76.72;96822.06;4168907;33;20138;-83
2022/03/10 06:45:08;;;;;;;;;;;0.80;80.90;;;-0.53;76.74;96833.75;4146049;33;20202;-84
2022/03/10 06:47:36;;;;;;;;;;;0.90;80.90;;;-0.45;76.63;96828.25;4169248;33;20204;-83
2022/03/10 06:50:06;;;;;;;;;;;0.90;80.60;;;-0.38;75.89;96839.97;4166812;33;19910;-83
2022/03/10 06:52:35;;;;;;;;;;;1.00;80.20;;;-0.28;75.00;96837.00;4131723;33;20482;-83
2022/03/10 06:55:04;;;;;;;;;;;1.10;79.40;;;-0.19;74.73;96837.72;4105103;34;20222;-83
2022/03/10 06:57:32;;;;;;;;;;;1.20;79.00;;;-0.13;74.54;96841.53;4127479;33;19910;-83
2022/03/10 07:00:01;;;;;;;;;;;1.20;78.50;;;-0.09;73.79;96846.38;4104097;34;20223;-83
2022/03/10 07:02:32;;;;;;;;;;;1.30;77.70;;;-0.05;73.43;96853.03;4127439;33;20228;-83
2022/03/10 07:05:02;;;;;;;;;;;1.30;77.60;;;-0.04;73.32;96851.19;4104549;34;20202;-83
2022/03/10 07:07:30;;;;;;;;;;;1.30;77.30;;;0.00;73.11;96857.88;4081970;34;20212;-84
2022/03/10 07:09:59;;;;;;;;;;;1.30;77.20;;;0.04;73.13;96852.94;4081138;34;19903;-84
2022/03/10 07:12:28;;;;;;;;;;;1.40;77.20;;;0.07;73.16;96853.41;4104167;34;20200;-84
2022/03/10 07:14:56;;;;;;;;;;;1.40;77.30;;;0.15;73.43;96863.22;4126864;33;20228;-83
2022/03/10 07:17:25;;;;;;;;;;;1.40;78.40;;;0.24;73.93;96855.88;4104412;34;20254;-84
2022/03/10 07:19:55;;;;;;;;;;;1.50;78.40;;;0.29;74.09;96856.97;4104146;34;19903;-84
2022/03/10 07:22:24;;;;;;;;;;;1.60;78.50;;;0.38;74.30;96859.56;4128470;33;19903;-83
2022/03/10 07:24:52;;;;;;;;;;;1.60;78.60;;;0.44;73.89;96867.72;4104979;34;20515;-83
2022/03/10 07:27:21;;;;;;;;;;;1.70;78.50;;;0.52;73.88;96874.00;4104206;34;20251;-84
2022/03/10 07:29:49;;;;;;;;;;;1.80;78.40;;;0.57;73.55;96872.44;4104156;34;19910;-84
2022/03/10 07:32:18;;;;;;;;;;;1.80;78.20;;;0.62;73.68;96877.25;4105489;34;20215;-84
2022/03/10 07:34:47;;;;;;;;;;;1.90;78.10;;;0.68;73.47;96883.72;4111252;34;19910;-83
2022/03/10 07:37:17;;;;;;;;;;;1.90;77.90;;;0.72;73.26;96883.16;4110973;34;19903;-83
2022/03/10 07:39:45;;;;;;;;;;;2.00;77.80;;;0.79;73.45;96885.06;4109473;34;19904;-83
2022/03/10 07:42:15;;;;;;;;;;;2.00;77.60;;;0.82;72.81;96880.16;4082603;34;20210;-83
2022/03/10 07:44:44;;;;;;;;;;;2.10;77.60;;;0.84;72.13;96886.16;4082586;34;19903;-83
2022/03/10 07:47:12;;;;;;;;;;;2.10;77.20;;;0.88;72.56;96876.66;4107552;34;20206;-83
2022/03/10 07:49:41;;;;;;;;;;;2.10;77.00;;;0.91;72.47;96884.38;4134470;33;19903;-84
2022/03/10 07:52:09;;;;;;;;;;;2.10;76.90;;;0.93;72.28;96877.97;4105839;34;20204;-83
2022/03/10 07:54:39;;;;;;;;;;;2.10;76.80;;;0.93;72.27;96889.56;4133869;33;19902;-83
2022/03/10 07:57:08;;;;;;;;;;;2.20;76.60;;;0.89;72.01;96889.13;4109131;33;19903;-83
2022/03/10 07:59:36;;;;;;;;;;;2.10;76.50;;;0.88;71.89;96892.84;4131239;33;20199;-83
2022/03/10 08:02:05;;;;;;;;;;;2.10;76.20;;;0.88;72.00;96890.13;4109316;33;20237;-83
2022/03/10 08:04:34;;;;;;;;;;;2.20;76.30;;;0.82;71.99;96893.63;4132501;33;20209;-83
2022/03/10 08:07:02;;;;;;;;;;;2.10;76.20;;;0.81;72.02;96896.50;4108243;33;19910;-83
2022/03/10 08:09:31;;;;;;;;;;;2.10;76.20;;;0.80;72.27;96898.38;4130146;33;20204;-83
2022/03/10 08:12:01;;;;;;;;;;;2.10;76.40;;;0.82;72.10;96892.78;4131014;33;19903;-83
2022/03/10 08:14:30;;;;;;;;;;;2.10;76.30;;;0.85;71.94;96895.91;4130913;33;20309;-83
2022/03/10 08:16:58;;;;;;;;;;;2.10;76.50;;;0.89;72.23;96899.09;4107508;33;20207;-83
2022/03/10 08:19:26;;;;;;;;;;;2.20;76.60;;;0.91;71.98;96892.47;4118400;33;20194;-83
2022/03/10 08:21:55;;;;;;;;;;;2.10;76.30;;;0.91;72.02;96892.47;4134840;33;20226;-83
2022/03/10 08:24:23;;;;;;;;;;;2.20;76.10;;;0.95;71.83;96897.47;4135090;33;19902;-83
2022/03/10 08:26:52;;;;;;;;;;;2.20;76.20;;;0.95;72.10;96892.09;4135540;33;20677;-82
2022/03/10 08:29:23;;;;;;;;;;;2.20;76.20;;;0.97;72.43;96892.72;4158285;33;20641;-83
2022/03/10 08:31:51;;;;;;;;;;;2.20;76.20;;;0.98;72.13;96897.06;4135059;33;20192;-82
2022/03/10 08:34:20;;;;;;;;;;;2.20;76.30;;;0.98;72.06;96903.31;4159414;33;19902;-83
2022/03/10 08:36:48;;;;;;;;;;;2.20;76.10;;;0.99;71.80;96904.13;4160369;33;20209;-83
2022/03/10 08:39:17;;;;;;;;;;;2.20;76.00;;;0.99;71.77;96898.75;4159371;33;20230;-83
2022/03/10 08:41:46;;;;;;;;;;;2.20;75.90;;;0.98;72.04;96897.06;4137149;33;20211;-82
2022/03/10 08:44:15;;;;;;;;;;;2.20;76.00;;;0.97;71.94;96900.81;4160058;33;19903;-83
2022/03/10 08:46:44;;;;;;;;;;;2.20;76.00;;;0.96;71.88;96907.25;4160488;33;20206;-83
2022/03/10 08:49:13;;;;;;;;;;;2.20;76.00;;;0.94;71.90;96906.59;4137682;33;20265;-83
2022/03/10 08:51:42;;;;;;;;;;;2.20;75.90;;;0.96;72.13;96904.53;4161831;33;20260;-82
2022/03/10 08:54:11;;;;;;;;;;;2.20;76.00;;;0.96;72.12;96901.84;4160852;33;19906;-83
2022/03/10 08:56:39;;;;;;;;;;;2.30;76.30;;;0.94;72.28;96904.72;4139915;33;20508;-83
2022/03/10 08:59:08;;;;;;;;;;;2.20;76.30;;;0.94;72.14;96901.19;4167046;33;19902;-83
2022/03/10 09:01:36;;;;;;;;;;;2.20;76.30;;;0.93;72.05;96910.31;4168157;33;20187;-83
2022/03/10 09:04:06;;;;;;;;;;;2.30;76.30;;;0.90;72.20;96896.19;4168373;33;19906;-84
2022/03/10 09:06:35;;;;;;;;;;;2.20;76.20;;;0.90;72.39;96906.97;4171913;33;19902;-83
2022/03/10 09:09:04;;;;;;;;;;;2.20;76.40;;;0.89;72.20;96908.00;4147110;33;20225;-83
2022/03/10 09:11:33;;;;;;;;;;;2.20;76.40;;;0.87;72.38;96910.03;4143072;33;19909;-83
2022/03/10 09:14:01;;;;;;;;;;;2.20;76.30;;;0.88;72.43;96918.97;4142423;33;20741;-83
2022/03/10 09:16:30;;;;;;;;;;;2.20;76.50;;;0.86;72.55;96911.06;4166253;33;19902;-83
2022/03/10 09:19:00;;;;;;;;;;;2.20;76.40;;;0.86;72.25;96921.84;4166401;33;20534;-83
2022/03/10 09:21:30;;;;;;;;;;;2.20;76.50;;;0.86;72.37;96913.75;4165539;33;20487;-84
2022/03/10 09:23:58;;;;;;;;;;;2.20;76.40;;;0.86;72.49;96911.06;4142106;33;20173;-83
2022/03/10 09:26:27;;;;;;;;;;;2.20;76.50;;;0.85;72.20;96914.78;4144550;33;19910;-84
2022/03/10 09:28:55;;;;;;;;;;;2.20;76.40;;;0.83;72.54;96919.56;4113883;33;20541;-83
2022/03/10 09:31:25;;;;;;;;;;;2.20;76.40;;;0.83;72.27;96916.84;4114842;33;20236;-83
2022/03/10 09:33:54;;;;;;;;;;;2.20;76.50;;;0.81;72.34;96909.97;4137561;33;19902;-83
2022/03/10 09:36:22;;;;;;;;;;;2.20;76.40;;;0.82;72.62;96908.94;4110620;33;20126;-83
2022/03/10 09:38:52;;;;;;;;;;;2.20;76.50;;;0.80;72.68;96916.38;4130870;33;20202;-83
2022/03/10 09:41:21;;;;;;;;;;;2.20;76.60;;;0.77;72.84;96913.03;4108882;33;20225;-83
2022/03/10 09:43:50;;;;;;;;;;;2.20;76.70;;;0.75;72.67;96917.81;4131957;33;20131;-83
2022/03/10 09:46:18;;;;;;;;;;;2.10;76.60;;;0.76;72.88;96924.88;4109066;33;20202;-83
2022/03/10 09:48:47;;;;;;;;;;;2.10;76.70;;;0.76;72.99;96916.78;4130492;33;19906;-83
2022/03/10 09:51:16;;;;;;;;;;;2.20;76.80;;;0.76;72.58;96910.53;4130365;33;20200;-83
2022/03/10 09:53:45;;;;;;;;;;;2.10;76.70;;;0.73;72.80;96917.16;4128847;33;20254;-83
2022/03/10 09:56:15;;;;;;;;;;;2.10;76.60;;;0.69;73.08;96910.47;4129850;33;20199;-83
2022/03/10 09:58:43;;;;;;;;;;;2.10;76.70;;;0.65;73.09;96914.56;4128053;33;19918;-83
2022/03/10 10:01:12;;;;;;;;;;;2.00;76.70;;;0.60;72.90;96920.53;4105789;33;20208;-84
2022/03/10 10:03:41;;;;;;;;;;;2.00;76.50;;;0.57;73.05;96912.84;4106101;33;19907;-83
2022/03/10 10:06:09;;;;;;;;;;;2.00;76.80;;;0.55;73.10;96917.56;4106144;33;20203;-83
2022/03/10 10:08:41;;;;;;;;;;;2.00;77.00;;;0.53;73.11;96903.47;4106290;33;20203;-83
2022/03/10 10:11:09;;;;;;;;;;;1.90;77.10;;;0.55;73.41;96911.34;4131356;33;20193;-83
2022/03/10 10:13:42;;;;;;;;;;;1.90;77.20;;;0.54;73.43;96913.22;4130091;33;20091;-83
2022/03/10 10:16:13;;;;;;;;;;;2.00;77.20;;;0.57;73.22;96910.16;4130640;33;19933;-83
2022/03/10 10:18:42;;;;;;;;;;;1.90;77.30;;;0.55;73.48;96898.72;4107378;33;20209;-83
2022/03/10 10:21:12;;;;;;;;;;;2.00;77.20;;;0.58;73.27;96905.56;4109550;33;20190;-83
2022/03/10 10:23:41;;;;;;;;;;;2.00;77.10;;;0.57;73.14;96912.84;4135161;33;19911;-82
2022/03/10 10:26:10;;;;;;;;;;;2.00;77.00;;;0.55;73.19;96904.09;4138780;33;20204;-82
2022/03/10 10:28:41;;;;;;;;;;;1.90;77.00;;;0.54;72.97;96913.22;4138689;33;19903;-83
2022/03/10 10:31:11;;;;;;;;;;;2.00;77.00;;;0.53;73.36;96905.28;4117427;33;20496;-83
2022/03/10 10:33:42;;;;;;;;;;;1.90;77.10;;;0.53;73.11;96910.69;4116639;33;19903;-83
2022/03/10 10:36:16;;;;;;;;;;;2.00;76.90;;;0.51;73.16;96918.97;4117075;33;20231;-82
2022/03/10 10:38:45;;;;;;;;;;;1.90;76.80;;;0.50;73.30;96908.41;4116797;33;20207;-82
2022/03/10 10:41:24;;;;;;;;;;;1.90;76.90;;;0.48;72.99;96913.94;4140352;33;19903;-82
2022/03/10 10:43:55;;;;;;;;;;;1.90;77.00;;;0.45;73.53;96912.47;4141767;33;20597;-82
2022/03/10 10:46:30;;;;;;;;;;;1.90;77.20;;;0.43;73.22;96902.94;4119533;33;19903;-83
2022/03/10 10:49:00;;;;;;;;;;;1.90;77.00;;;0.40;73.28;96932.94;4140387;33;19903;-82
2022/03/10 10:51:37;;;;;;;;;;;1.80;76.90;;;0.38;73.41;96930.44;4140572;33;19903;-83
2022/03/10 10:54:08;;;;;;;;;;;1.80;77.00;;;0.35;73.12;96925.41;4140080;33;20201;-82
2022/03/10 10:56:37;;;;;;;;;;;1.80;77.00;;;0.34;72.87;96939.03;4117059;33;20202;-82
2022/03/10 10:59:08;;;;;;;;;;;1.80;77.00;;;0.30;73.33;96928.66;4140201;33;19911;-83
2022/03/10 11:01:38;;;;;;;;;;;1.80;77.00;;;0.28;73.33;96936.09;4116305;33;19903;-83
2022/03/10 11:04:07;;;;;;;;;;;1.70;77.10;;;0.25;73.19;96930.25;4118196;33;20501;-83
2022/03/10 11:06:37;;;;;;;;;;;1.70;77.10;;;0.23;73.48;96943.06;4140811;33;20204;-83
2022/03/10 11:09:05;;;;;;;;;;;1.70;77.20;;;0.22;73.22;96936.84;4117828;33;19903;-82
2022/03/10 11:11:37;;;;;;;;;;;1.70;77.20;;;0.18;73.43;96943.63;4118713;33;20247;-83
2022/03/10 11:14:06;;;;;;;;;;;1.60;77.20;;;0.16;73.24;96934.91;4118824;33;20606;-83
2022/03/10 11:16:35;;;;;;;;;;;1.60;77.30;;;0.14;73.79;96945.00;4120416;33;20202;-83
2022/03/10 11:19:03;;;;;;;;;;;1.60;77.30;;;0.13;73.67;96937.97;4143019;33;19909;-82
2022/03/10 11:21:51;;;;;;;;;;;1.60;77.40;;;0.11;73.56;96940.00;4141769;33;20201;-83
2022/03/10 11:24:53;;;;;;;;;;;1.50;77.60;;;0.09;73.74;96931.25;4115308;34;20241;-83
2022/03/10 11:27:25;;;;;;;;;;;1.50;77.60;;;0.07;73.59;96936.00;4094233;34;20216;-83
2022/03/10 11:29:55;;;;;;;;;;;1.50;77.80;;;0.06;73.99;96939.72;4094760;34;20529;-83
2022/03/10 11:32:27;;;;;;;;;;;1.50;78.00;;;0.05;74.38;96936.19;4117708;34;19903;-83
2022/03/10 11:34:58;;;;;;;;;;;1.50;78.10;;;0.05;74.12;96924.59;4095096;34;19903;-82
2022/03/10 11:37:37;;;;;;;;;;;1.40;78.10;;;0.05;74.30;96924.59;4117726;34;20206;-83
2022/03/10 11:40:08;;;;;;;;;;;1.40;78.10;;;0.05;74.19;96925.41;4120120;34;19904;-83
2022/03/10 11:42:37;;;;;;;;;;;1.50;78.30;;;0.06;74.29;96923.59;4098570;34;19903;-83
2022/03/10 11:45:12;;;;;;;;;;;1.50;78.30;;;0.07;74.17;96922.53;4117372;34;20240;-83